Edzard Schulte — 2CVX9 — position and weather

sailwx.info

Track history (hours):
 
Tides and Currents Weather Stations Pressure Air Temp Water Temp Dewpoint Dewpoint Depression Visibility Wind Speed Wind Dir Waves Ship Positions

Edzard Schulte

Last reported at 2017-Sep-16 09:28 UTC. Time now 2017-Sep-21 08:40 UTC.
Position N 45°14' W 074°11'.

Length 145 m; draft 7.7 m.

Type: Tanker. MMSI: 235076245.

Date/timePositionNaut miles runAvg speedWind from/ knotsBaromVisibWave heightAir tempDewpointWater temp
2017-Sep-16 09:28N 45°14' W 074°11'6 9.5
2017-Sep-16 08:51N 45°13' W 074°02'5 9.4
2017-Sep-16 08:17N 45°17' W 073°57'2 5.4
2017-Sep-16 08:00N 45°18' W 073°56'0 0.7
2017-Sep-16 07:30N 45°18' W 073°55'1 1.2
2017-Sep-16 07:01N 45°19' W 073°55'1 1.7
2017-Sep-16 06:30N 45°20' W 073°55'3 6.5
2017-Sep-16 06:00N 45°21' W 073°51'5 9.5
2017-Sep-16 05:30N 45°24' W 073°45'4 7.4
2017-Sep-16 05:00N 45°25' W 073°40'3 6.2
2017-Sep-16 04:28N 45°24' W 073°35'1 2.2
2017-Sep-16 04:00N 45°24' W 073°34'2 2.7
2017-Sep-16 03:26N 45°25' W 073°32'  
2017-Sep-09 10:07N 40°26' W 073°46'110.4
2017-Sep-09 10:01N 40°26' W 073°47'5 8.8
2017-Sep-09 09:29N 40°28' W 073°53'713.2
2017-Sep-09 09:00N 40°31' W 074°00'613.1
2017-Sep-09 08:30N 40°37' W 074°03'1 2.3
2017-Sep-09 08:00N 40°39' W 074°03'0 0.0
2017-Sep-09 07:30N 40°39' W 074°03'0 0.0
2017-Sep-09 07:00N 40°39' W 074°03'0 0.0
2017-Sep-09 06:30N 40°39' W 074°03'0 0.1
2017-Sep-09 06:00N 40°39' W 074°03'0 0.0
2017-Sep-09 05:30N 40°39' W 074°03'0 0.1
2017-Sep-09 05:00N 40°39' W 074°03'0 0.2
2017-Sep-09 04:30N 40°39' W 074°03'0 0.1
2017-Sep-09 04:00N 40°39' W 074°03'0 0.0
2017-Sep-09 03:30N 40°39' W 074°03'0 0.0
2017-Sep-09 03:00N 40°39' W 074°03'0 0.1
2017-Sep-09 02:30N 40°39' W 074°03'0 0.0
2017-Sep-09 02:00N 40°39' W 074°03'0 0.0
2017-Sep-09 01:30N 40°39' W 074°03'0 0.1
2017-Sep-09 00:57N 40°39' W 074°03'0 0.1
2017-Sep-09 00:30N 40°39' W 074°03'0 0.0
2017-Sep-09 00:00N 40°39' W 074°03'0 0.0
2017-Sep-08 23:30N 40°39' W 074°03'0 0.3
2017-Sep-08 23:00N 40°39' W 074°03'0 0.6
2017-Sep-08 22:30N 40°38' W 074°03'3 6.5
2017-Sep-08 22:00N 40°35' W 074°02'510.4
2017-Sep-08 21:30N 40°31' W 073°58'4 8.0
2017-Sep-08 21:00N 40°28' W 073°55'4 8.7
2017-Sep-08 20:30N 40°29' W 074°01'5 9.8
2017-Sep-08 20:00N 40°30' W 074°07'7 5.5
2017-Sep-08 18:49N 40°33' W 074°15'1 2.9
2017-Sep-08 18:27N 40°33' W 074°14'10 0.4
2017-Sep-07 17:12N 40°29' W 074°03'2 9.9
2017-Sep-07 17:00N 40°29' W 074°01'  
Track history (hours):
 
Tides and Currents Weather Stations Pressure Air Temp Water Temp Dewpoint Dewpoint Depression Visibility Wind Speed Wind Dir Waves Ship Positions

Edzard Schulte

Last reported at 2017-Sep-16 09:28 UTC. Time now 2017-Sep-21 08:40 UTC.
Position N 45°14' W 074°11'.

Length 145 m; draft 7.7 m.

Type: Tanker. MMSI: 235076245.

Date/timePositionNaut miles runAvg speedWind from/ knotsBaromVisibWave heightAir tempDewpointWater temp
2017-Sep-16 09:28N 45°14' W 074°11'6 9.5
2017-Sep-16 08:51N 45°13' W 074°02'5 9.4
2017-Sep-16 08:17N 45°17' W 073°57'2 5.4
2017-Sep-16 08:00N 45°18' W 073°56'0 0.7
2017-Sep-16 07:30N 45°18' W 073°55'1 1.2
2017-Sep-16 07:01N 45°19' W 073°55'1 1.7
2017-Sep-16 06:30N 45°20' W 073°55'3 6.5
2017-Sep-16 06:00N 45°21' W 073°51'5 9.5
2017-Sep-16 05:30N 45°24' W 073°45'4 7.4
2017-Sep-16 05:00N 45°25' W 073°40'3 6.2
2017-Sep-16 04:28N 45°24' W 073°35'1 2.2
2017-Sep-16 04:00N 45°24' W 073°34'2 2.7
2017-Sep-16 03:26N 45°25' W 073°32'  
2017-Sep-09 10:07N 40°26' W 073°46'110.4
2017-Sep-09 10:01N 40°26' W 073°47'5 8.8
2017-Sep-09 09:29N 40°28' W 073°53'713.2
2017-Sep-09 09:00N 40°31' W 074°00'613.1
2017-Sep-09 08:30N 40°37' W 074°03'1 2.3
2017-Sep-09 08:00N 40°39' W 074°03'0 0.0
2017-Sep-09 07:30N 40°39' W 074°03'0 0.0
2017-Sep-09 07:00N 40°39' W 074°03'0 0.0
2017-Sep-09 06:30N 40°39' W 074°03'0 0.1
2017-Sep-09 06:00N 40°39' W 074°03'0 0.0
2017-Sep-09 05:30N 40°39' W 074°03'0 0.1
2017-Sep-09 05:00N 40°39' W 074°03'0 0.2
2017-Sep-09 04:30N 40°39' W 074°03'0 0.1
2017-Sep-09 04:00N 40°39' W 074°03'0 0.0
2017-Sep-09 03:30N 40°39' W 074°03'0 0.0
2017-Sep-09 03:00N 40°39' W 074°03'0 0.1
2017-Sep-09 02:30N 40°39' W 074°03'0 0.0
2017-Sep-09 02:00N 40°39' W 074°03'0 0.0
2017-Sep-09 01:30N 40°39' W 074°03'0 0.1
2017-Sep-09 00:57N 40°39' W 074°03'0 0.1
2017-Sep-09 00:30N 40°39' W 074°03'0 0.0
2017-Sep-09 00:00N 40°39' W 074°03'0 0.0
2017-Sep-08 23:30N 40°39' W 074°03'0 0.3
2017-Sep-08 23:00N 40°39' W 074°03'0 0.6
2017-Sep-08 22:30N 40°38' W 074°03'3 6.5
2017-Sep-08 22:00N 40°35' W 074°02'510.4
2017-Sep-08 21:30N 40°31' W 073°58'4 8.0
2017-Sep-08 21:00N 40°28' W 073°55'4 8.7
2017-Sep-08 20:30N 40°29' W 074°01'5 9.8
2017-Sep-08 20:00N 40°30' W 074°07'7 5.5
2017-Sep-08 18:49N 40°33' W 074°15'1 2.9
2017-Sep-08 18:27N 40°33' W 074°14'10 0.4
2017-Sep-07 17:12N 40°29' W 074°03'2 9.9
2017-Sep-07 17:00N 40°29' W 074°01'  

Dump ship's entire track history